createdAt,value
2022-11-24T00:02:16.868Z,100344.22
2022-11-24T00:04:43.387Z,100346.09
2022-11-24T00:07:09.830Z,100345.00
2022-11-24T00:09:36.273Z,100342.63
2022-11-24T00:12:02.787Z,100341.31
2022-11-24T00:14:29.183Z,100345.94
2022-11-24T00:16:55.628Z,100343.88
2022-11-24T00:19:22.079Z,100343.44
2022-11-24T00:21:48.466Z,100334.91
2022-11-24T00:24:14.854Z,100337.47
2022-11-24T00:26:41.460Z,100340.25
2022-11-24T00:29:09.302Z,100331.09
2022-11-24T00:31:38.797Z,100338.59
2022-11-24T00:34:11.720Z,100341.13
2022-11-24T00:36:38.709Z,100335.81
2022-11-24T00:39:07.322Z,100337.75
2022-11-24T00:41:34.578Z,100330.19
2022-11-24T00:44:01.404Z,100332.22
2022-11-24T00:46:28.518Z,100335.38
2022-11-24T00:48:55.135Z,100337.38
2022-11-24T00:51:24.160Z,100347.25
2022-11-24T00:53:50.617Z,100353.94
2022-11-24T00:56:17.000Z,100355.00
2022-11-24T00:58:43.390Z,100371.69
2022-11-24T01:01:19.048Z,100364.13
2022-11-24T01:03:47.330Z,100356.22
2022-11-24T01:06:23.041Z,100357.69
2022-11-24T01:08:49.507Z,100358.88
2022-11-24T01:11:27.698Z,100360.75
2022-11-24T01:13:59.192Z,100350.91
2022-11-24T01:16:31.495Z,100359.41
2022-11-24T01:18:58.245Z,100358.91
2022-11-24T01:21:24.745Z,100352.63
2022-11-24T01:23:51.260Z,100360.09
2022-11-24T01:26:21.101Z,100366.22
2022-11-24T01:28:51.986Z,100372.06
2022-11-24T01:31:18.429Z,100368.41
2022-11-24T01:33:44.854Z,100379.31
2022-11-24T01:36:11.341Z,100369.31
2022-11-24T01:38:37.889Z,100371.00
2022-11-24T01:41:05.474Z,100371.16
2022-11-24T01:43:32.644Z,100373.69
2022-11-24T01:46:04.662Z,100382.78
2022-11-24T01:48:38.576Z,100382.94
2022-11-24T01:51:14.879Z,100374.03
2022-11-24T01:53:46.196Z,100380.63
2022-11-24T01:56:13.662Z,100379.44
2022-11-24T01:58:43.236Z,100381.59
2022-11-24T02:01:10.667Z,100387.16
2022-11-24T02:03:41.898Z,100387.50
2022-11-24T02:06:14.085Z,100392.91
2022-11-24T02:08:47.163Z,100392.66
2022-11-24T02:11:13.555Z,100391.28
2022-11-24T02:13:42.105Z,100390.34
2022-11-24T02:16:11.578Z,100391.22
2022-11-24T02:18:39.757Z,100398.69
2022-11-24T02:21:06.895Z,100404.31
2022-11-24T02:23:46.787Z,100396.16
2022-11-24T02:26:26.138Z,100395.94
2022-11-24T02:28:52.656Z,100398.41
2022-11-24T02:31:19.278Z,100400.47
2022-11-24T02:33:46.219Z,100393.88
2022-11-24T02:36:12.638Z,100392.22
2022-11-24T02:38:39.034Z,100397.59
2022-11-24T02:41:11.645Z,100392.31
2022-11-24T02:43:42.668Z,100393.75
2022-11-24T02:46:10.792Z,100399.16
2022-11-24T02:48:38.366Z,100403.22
2022-11-24T02:51:05.292Z,100400.25
2022-11-24T02:53:31.681Z,100400.34
2022-11-24T02:55:58.058Z,100397.81
2022-11-24T02:58:24.458Z,100401.19
2022-11-24T03:00:54.130Z,100395.69
2022-11-24T03:03:24.360Z,100422.44
2022-11-24T03:05:50.736Z,100418.00
2022-11-24T03:08:17.297Z,100416.31
2022-11-24T03:10:43.728Z,100425.31
2022-11-24T03:13:10.561Z,100414.13
2022-11-24T03:15:37.530Z,100424.00
2022-11-24T03:18:05.123Z,100416.81
2022-11-24T03:20:31.534Z,100421.59
2022-11-24T03:22:57.960Z,100414.03
2022-11-24T03:25:24.395Z,100407.66
2022-11-24T03:27:52.717Z,100417.16
2022-11-24T03:30:19.175Z,100421.34
2022-11-24T03:32:45.566Z,100417.41
2022-11-24T03:35:12.082Z,100423.53
2022-11-24T03:37:38.482Z,100426.38
2022-11-24T03:40:05.355Z,100428.44
2022-11-24T03:42:31.734Z,100428.78
2022-11-24T03:45:01.638Z,100421.47
2022-11-24T03:47:38.167Z,100439.47
2022-11-24T03:50:04.849Z,100431.34
2022-11-24T03:52:31.217Z,100436.00
2022-11-24T03:54:57.602Z,100440.28
2022-11-24T03:57:23.993Z,100436.69
2022-11-24T03:59:50.381Z,100438.13
2022-11-24T04:02:16.777Z,100435.72
2022-11-24T04:04:48.485Z,100436.03
2022-11-24T04:07:16.502Z,100435.03
2022-11-24T04:09:42.967Z,100440.09
2022-11-24T04:12:27.978Z,100454.31
2022-11-24T04:14:54.354Z,100433.06
2022-11-24T04:17:20.773Z,100439.69
2022-11-24T04:19:47.148Z,100440.66
2022-11-24T04:22:13.520Z,100448.56
2022-11-24T04:24:39.931Z,100454.91
2022-11-24T04:27:06.309Z,100464.69
2022-11-24T04:29:32.739Z,100467.53
2022-11-24T04:31:59.133Z,100476.56
2022-11-24T04:34:25.526Z,100484.97
2022-11-24T04:36:51.936Z,100489.53
2022-11-24T04:39:24.793Z,100483.06
2022-11-24T04:41:53.001Z,100488.47
2022-11-24T04:44:19.466Z,100491.59
2022-11-24T04:46:45.929Z,100493.41
2022-11-24T04:49:12.457Z,100492.38
2022-11-24T04:51:39.790Z,100490.22
2022-11-24T04:54:13.781Z,100495.53
2022-11-24T04:56:41.387Z,100501.72
2022-11-24T04:59:08.576Z,100504.28
2022-11-24T05:01:35.357Z,100515.31
2022-11-24T05:04:01.885Z,100519.88
2022-11-24T05:06:28.327Z,100513.47
2022-11-24T05:08:54.748Z,100508.91
2022-11-24T05:11:21.129Z,100513.47
2022-11-24T05:13:47.538Z,100511.94
2022-11-24T05:16:13.983Z,100516.13
2022-11-24T05:18:40.454Z,100514.94
2022-11-24T05:21:06.865Z,100526.84
2022-11-24T05:23:33.248Z,100529.06
2022-11-24T05:26:01.443Z,100522.50
2022-11-24T05:28:28.160Z,100526.22
2022-11-24T05:30:54.619Z,100532.41
2022-11-24T05:33:22.915Z,100539.09
2022-11-24T05:35:50.147Z,100535.16
2022-11-24T05:38:17.825Z,100538.28
2022-11-24T05:40:44.650Z,100542.97
2022-11-24T05:43:15.523Z,100543.13
2022-11-24T05:45:42.948Z,100545.25
2022-11-24T05:48:12.332Z,100543.91
2022-11-24T05:50:39.032Z,100542.97
2022-11-24T05:53:07.513Z,100541.03
2022-11-24T05:55:34.961Z,100552.84
2022-11-24T05:58:03.819Z,100549.94
2022-11-24T06:00:31.527Z,100543.13
2022-11-24T06:02:58.610Z,100551.47
2022-11-24T06:05:26.403Z,100556.28
2022-11-24T06:07:53.151Z,100561.16
2022-11-24T06:10:22.363Z,100568.63
2022-11-24T06:12:48.744Z,100567.59
2022-11-24T06:15:15.274Z,100582.25
2022-11-24T06:17:41.647Z,100582.94
2022-11-24T06:20:09.549Z,100572.06
2022-11-24T06:22:36.147Z,100581.28
2022-11-24T06:25:02.630Z,100578.38
2022-11-24T06:27:29.006Z,100573.66
2022-11-24T06:29:55.395Z,100584.91
2022-11-24T06:32:21.919Z,100578.41
2022-11-24T06:34:48.310Z,100577.50
2022-11-24T06:37:14.722Z,100579.69
2022-11-24T06:39:41.121Z,100581.88
2022-11-24T06:42:07.504Z,100586.22
2022-11-24T06:44:34.268Z,100597.53
2022-11-24T06:47:00.843Z,100599.16
2022-11-24T06:49:27.224Z,100601.41
2022-11-24T06:51:54.764Z,100605.72
2022-11-24T06:54:21.437Z,100607.84
2022-11-24T06:56:47.844Z,100607.84
2022-11-24T06:59:19.622Z,100604.09
2022-11-24T07:01:46.896Z,100605.91
2022-11-24T07:04:13.650Z,100613.06
2022-11-24T07:06:41.306Z,100608.00
2022-11-24T07:09:12.451Z,100615.13
2022-11-24T07:11:39.111Z,100619.72
2022-11-24T07:14:05.903Z,100625.91
2022-11-24T07:16:32.670Z,100622.84
2022-11-24T07:18:59.841Z,100617.19
2022-11-24T07:21:28.064Z,100617.34
2022-11-24T07:23:56.682Z,100616.28
2022-11-24T07:26:23.754Z,100624.09
2022-11-24T07:28:50.816Z,100632.81
2022-11-24T07:31:19.609Z,100630.13
2022-11-24T07:33:49.904Z,100637.72
2022-11-24T07:36:16.352Z,100648.03
2022-11-24T07:38:42.780Z,100654.09
2022-11-24T07:41:11.756Z,100653.66
2022-11-24T07:43:38.750Z,100654.84
2022-11-24T07:46:08.636Z,100651.03
2022-11-24T07:48:35.179Z,100651.47
2022-11-24T07:51:03.483Z,100650.69
2022-11-24T07:53:30.742Z,100650.69
2022-11-24T07:56:01.521Z,100654.47
2022-11-24T07:58:33.470Z,100651.00
2022-11-24T08:01:00.774Z,100657.41
2022-11-24T08:03:27.908Z,100658.19
2022-11-24T08:08:46.488Z,100660.84
2022-11-24T08:11:17.937Z,100668.94
2022-11-24T08:13:44.759Z,100673.53
2022-11-24T08:16:16.665Z,100667.84
2022-11-24T08:18:43.677Z,100672.19
2022-11-24T08:21:13.816Z,100660.00
2022-11-24T08:23:40.354Z,100661.91
2022-11-24T08:26:09.262Z,100666.72
2022-11-24T08:28:36.469Z,100672.09
2022-11-24T08:31:04.841Z,100671.47
2022-11-24T08:33:31.524Z,100680.72
2022-11-24T08:36:03.767Z,100678.09
2022-11-24T08:38:30.182Z,100674.03
2022-11-24T08:41:01.252Z,100692.22
2022-11-24T08:43:27.565Z,100703.25
2022-11-24T08:45:54.139Z,100699.19
2022-11-24T08:48:20.611Z,100688.78
2022-11-24T08:50:47.008Z,100688.56
2022-11-24T08:53:13.394Z,100696.75
2022-11-24T08:55:39.800Z,100685.09
2022-11-24T08:58:06.198Z,100688.22
2022-11-24T09:00:32.757Z,100690.00
2022-11-24T09:02:59.531Z,100688.00
2022-11-24T09:05:50.700Z,100686.69
2022-11-24T09:08:12.312Z,100689.91
2022-11-24T09:10:38.730Z,100698.94
2022-11-24T09:13:05.153Z,100696.16
2022-11-24T09:15:31.587Z,100701.47
2022-11-24T09:17:57.970Z,100689.81
2022-11-24T09:20:24.378Z,100704.13
2022-11-24T09:22:50.765Z,100707.50
2022-11-24T09:25:17.302Z,100710.41
2022-11-24T09:27:43.685Z,100717.16
2022-11-24T09:30:10.689Z,100723.06
2022-11-24T09:32:37.630Z,100720.63
2022-11-24T09:35:04.446Z,100723.19
2022-11-24T09:37:32.877Z,100721.00
2022-11-24T09:39:59.638Z,100723.66
2022-11-24T09:42:43.236Z,100728.44
2022-11-24T09:45:19.991Z,100725.59
2022-11-24T09:48:08.840Z,100722.56
2022-11-24T09:50:37.652Z,100718.97
2022-11-24T09:53:16.076Z,100718.97
2022-11-24T09:55:58.832Z,100714.88
2022-11-24T09:58:44.612Z,100716.81
2022-11-24T10:01:16.991Z,100718.97
2022-11-24T10:03:46.144Z,100725.84
2022-11-24T10:07:00.332Z,100727.06
2022-11-24T10:09:45.370Z,100727.06
2022-11-24T10:12:49.775Z,100734.78
2022-11-24T10:15:25.367Z,100735.34
2022-11-24T10:18:13.263Z,100738.25
2022-11-24T10:21:05.567Z,100734.41
2022-11-24T10:23:55.080Z,100737.41
2022-11-24T10:26:36.067Z,100737.19
2022-11-24T10:29:26.142Z,100729.72
2022-11-24T10:31:55.711Z,100732.72
2022-11-24T10:34:39.685Z,100735.63
2022-11-24T10:37:27.885Z,100741.50
2022-11-24T10:40:49.075Z,100747.03
2022-11-24T10:43:11.639Z,100754.50
2022-11-24T10:45:39.495Z,100754.97
2022-11-24T10:48:19.776Z,100759.09
2022-11-24T10:50:46.200Z,100755.56
2022-11-24T10:53:24.411Z,100763.03
2022-11-24T10:55:58.756Z,100763.91
2022-11-24T10:58:38.702Z,100754.97
2022-11-24T11:01:14.159Z,100761.22
2022-11-24T11:03:55.586Z,100757.97
2022-11-24T11:06:32.170Z,100752.53
2022-11-24T11:09:26.160Z,100760.28
2022-11-24T11:12:42.242Z,100760.38
2022-11-24T11:14:56.951Z,100753.03
2022-11-24T11:17:35.829Z,100759.38
2022-11-24T11:20:34.074Z,100756.81
2022-11-24T11:23:13.231Z,100759.09
2022-11-24T11:25:41.089Z,100755.22
2022-11-24T11:28:18.693Z,100762.81
2022-11-24T11:34:22.135Z,100748.38
2022-11-24T11:36:56.124Z,100760.03
2022-11-24T11:39:34.903Z,100757.88
2022-11-24T11:42:31.324Z,100760.25
2022-11-24T11:45:03.577Z,100760.50
2022-11-24T11:47:43.432Z,100751.69
2022-11-24T11:50:20.583Z,100747.34
2022-11-24T11:53:10.502Z,100756.44
2022-11-24T11:56:07.309Z,100760.03
2022-11-24T11:58:50.765Z,100770.19
2022-11-24T12:01:46.187Z,100757.31
2022-11-24T12:04:52.552Z,100741.19
2022-11-24T12:07:45.621Z,100762.53
2022-11-24T12:10:38.928Z,100757.31
2022-11-24T12:13:33.673Z,100763.22
2022-11-24T12:16:25.075Z,100754.41
2022-11-24T12:19:14.485Z,100753.72
2022-11-24T12:22:03.401Z,100767.44
2022-11-24T12:24:54.826Z,100763.16
2022-11-24T12:28:01.933Z,100759.78
2022-11-24T12:30:58.750Z,100752.41
2022-11-24T12:33:39.146Z,100761.50
2022-11-24T12:36:33.387Z,100760.22
2022-11-24T12:39:19.583Z,100757.09
2022-11-24T12:42:12.366Z,100767.28
2022-11-24T12:45:12.922Z,100764.84
2022-11-24T12:48:13.370Z,100767.28
2022-11-24T12:50:43.880Z,100771.84
2022-11-24T12:53:21.992Z,100775.22
2022-11-24T12:55:48.720Z,100771.94
2022-11-24T12:58:52.006Z,100771.69
2022-11-24T13:01:21.576Z,100771.34
2022-11-24T13:04:04.975Z,100766.69
2022-11-24T13:06:45.842Z,100772.81
2022-11-24T13:09:15.462Z,100759.88
2022-11-24T13:11:44.461Z,100806.44
2022-11-24T13:14:17.568Z,100787.81
2022-11-24T13:17:21.911Z,100786.91
2022-11-24T13:19:41.508Z,100795.38
2022-11-24T13:22:07.833Z,100797.59
2022-11-24T13:24:36.953Z,100802.56
2022-11-24T13:27:15.958Z,100796.28
2022-11-24T13:29:45.294Z,100797.13
2022-11-24T13:32:14.541Z,100801.34
2022-11-24T13:34:41.212Z,100801.34
2022-11-24T13:37:31.271Z,100808.91
2022-11-24T13:40:22.731Z,100818.00
2022-11-24T13:42:55.008Z,100812.84
2022-11-24T13:45:49.791Z,100823.81
2022-11-24T13:48:19.254Z,100817.97
2022-11-24T13:50:53.099Z,100821.69
2022-11-24T13:53:41.239Z,100833.38
2022-11-24T13:56:13.628Z,100823.53
2022-11-24T13:58:52.155Z,100822.97
2022-11-24T14:01:24.831Z,100832.97
2022-11-24T14:04:28.014Z,100831.28
2022-11-24T14:06:52.948Z,100840.09
2022-11-24T14:09:31.234Z,100841.28
2022-11-24T14:12:31.327Z,100843.56
2022-11-24T14:15:23.156Z,100848.88
2022-11-24T14:17:49.571Z,100847.09
2022-11-24T14:20:23.830Z,100849.31
2022-11-24T14:22:50.567Z,100848.38
2022-11-24T14:25:35.413Z,100854.00
2022-11-24T14:28:02.188Z,100858.22
2022-11-24T14:30:28.826Z,100855.78
2022-11-24T14:33:03.394Z,100860.84
2022-11-24T14:35:31.885Z,100867.03
2022-11-24T14:38:01.134Z,100868.38
2022-11-24T14:40:45.279Z,100869.16
2022-11-24T14:43:25.898Z,100869.72
2022-11-24T14:45:58.736Z,100880.34
2022-11-24T14:48:31.542Z,100878.06
2022-11-24T14:51:07.750Z,100879.59
2022-11-24T14:53:35.397Z,100882.88
2022-11-24T14:56:10.012Z,100877.31
2022-11-24T14:58:41.812Z,100891.44
2022-11-24T15:01:29.485Z,100888.16
2022-11-24T15:07:25.694Z,100891.69
2022-11-24T15:09:57.638Z,100896.06
2022-11-24T15:12:30.555Z,100898.59
2022-11-24T15:15:02.658Z,100900.47
2022-11-24T15:17:30.069Z,100900.78
2022-11-24T15:20:16.829Z,100896.00
2022-11-24T15:22:46.358Z,100907.44
2022-11-24T15:25:28.339Z,100906.69
2022-11-24T15:27:55.044Z,100906.75
2022-11-24T15:30:21.545Z,100913.44
2022-11-24T15:32:56.065Z,100919.59
2022-11-24T15:35:25.018Z,100924.31
2022-11-24T15:37:51.484Z,100927.31
2022-11-24T15:40:18.991Z,100932.38
2022-11-24T15:42:51.277Z,100929.34
2022-11-24T15:45:18.829Z,100936.84
2022-11-24T15:47:45.253Z,100937.25
2022-11-24T15:50:12.254Z,100940.03
2022-11-24T15:52:39.363Z,100941.00
2022-11-24T15:55:06.680Z,100942.34
2022-11-24T15:57:34.142Z,100934.22
2022-11-24T16:00:00.751Z,100937.72
2022-11-24T16:02:27.223Z,100939.91
2022-11-24T16:04:53.662Z,100939.41
2022-11-24T16:07:20.121Z,100939.00
2022-11-24T16:09:46.559Z,100939.84
2022-11-24T16:12:13.000Z,100938.00
2022-11-24T16:14:39.492Z,100946.00
2022-11-24T16:17:06.077Z,100958.69
2022-11-24T16:19:34.217Z,100958.69
2022-11-24T16:22:03.819Z,100965.34
2022-11-24T16:24:30.202Z,100957.50
2022-11-24T16:26:56.598Z,100967.59
2022-11-24T16:29:24.212Z,100970.22
2022-11-24T16:31:54.115Z,100964.16
2022-11-24T16:34:20.593Z,100967.81
2022-11-24T16:36:47.066Z,100975.53
2022-11-24T16:39:13.441Z,100983.38
2022-11-24T16:41:39.866Z,100980.59
2022-11-24T16:44:06.316Z,100973.44
2022-11-24T16:46:32.758Z,100977.13
2022-11-24T16:49:03.600Z,100975.47
2022-11-24T16:51:34.691Z,100972.25
2022-11-24T16:54:02.834Z,100973.28
2022-11-24T16:56:29.970Z,100972.97
2022-11-24T16:58:56.624Z,100983.81
2022-11-24T17:01:23.572Z,100984.06
2022-11-24T17:03:50.002Z,100985.97
2022-11-24T17:06:17.152Z,100976.81
2022-11-24T17:08:45.496Z,100978.50
2022-11-24T17:11:15.164Z,100977.75
2022-11-24T17:13:42.219Z,100972.34
2022-11-24T17:16:10.828Z,100967.88
2022-11-24T17:18:38.475Z,100975.38
2022-11-24T17:21:09.755Z,100973.53
2022-11-24T17:23:37.140Z,100978.75
2022-11-24T17:26:10.125Z,100981.63
2022-11-24T17:28:36.625Z,100982.97
2022-11-24T17:31:17.900Z,100981.34
2022-11-24T17:33:44.236Z,100980.00
2022-11-24T17:36:10.608Z,100984.53
2022-11-24T17:38:37.005Z,100982.88
2022-11-24T17:41:03.533Z,100974.53
2022-11-24T17:43:29.954Z,100985.66
2022-11-24T17:45:59.058Z,100986.75
2022-11-24T17:48:25.850Z,100991.28
2022-11-24T17:51:09.993Z,101002.31
2022-11-24T17:53:37.493Z,101005.78
2022-11-24T17:56:04.757Z,101010.34
2022-11-24T17:58:38.332Z,100991.03
2022-11-24T18:01:08.496Z,101000.41
2022-11-24T18:03:35.126Z,101000.75
2022-11-24T18:06:12.670Z,101000.16
2022-11-24T18:08:41.114Z,101006.03
2022-11-24T18:11:30.513Z,101012.44
2022-11-24T18:14:01.419Z,101012.69
2022-11-24T18:16:30.236Z,101014.03
2022-11-24T18:19:14.333Z,101012.91
2022-11-24T18:21:42.162Z,101016.50
2022-11-24T18:24:10.268Z,101018.16
2022-11-24T18:26:37.246Z,101012.94
2022-11-24T18:29:04.124Z,101016.41
2022-11-24T18:31:31.168Z,101018.03
2022-11-24T18:33:57.694Z,101013.31
2022-11-24T18:36:29.926Z,101012.13
2022-11-24T18:38:57.558Z,101007.94
2022-11-24T18:41:23.956Z,101010.69
2022-11-24T18:43:50.341Z,101017.53
2022-11-24T18:46:17.659Z,101018.09
2022-11-24T18:48:44.869Z,101020.84
2022-11-24T18:51:14.947Z,101018.91
2022-11-24T18:53:43.087Z,101014.31
2022-11-24T18:56:15.628Z,101007.75
2022-11-24T18:58:43.233Z,101004.66
2022-11-24T19:01:21.294Z,101008.69
2022-11-24T19:03:52.913Z,101004.47
2022-11-24T19:06:20.501Z,101002.53
2022-11-24T19:08:47.544Z,101008.56
2022-11-24T19:11:19.778Z,101011.34
2022-11-24T19:13:47.599Z,101010.88
2022-11-24T19:16:14.438Z,101015.00
2022-11-24T19:18:40.917Z,101021.22
2022-11-24T19:21:07.317Z,101017.72
2022-11-24T19:23:33.847Z,101022.53
2022-11-24T19:26:04.728Z,101033.41
2022-11-24T19:28:31.790Z,101038.00
2022-11-24T19:31:01.869Z,101032.00
2022-11-24T19:33:28.353Z,101041.63
2022-11-24T19:36:27.422Z,101042.56
2022-11-24T19:38:55.679Z,101043.56
2022-11-24T19:41:24.798Z,101049.22
2022-11-24T19:43:54.659Z,101042.34
2022-11-24T19:46:22.901Z,101043.44
2022-11-24T19:48:50.948Z,101054.78
2022-11-24T19:51:22.770Z,101055.38
2022-11-24T19:53:49.285Z,101060.19
2022-11-24T19:56:24.296Z,101064.19
2022-11-24T19:58:52.040Z,101062.00
2022-11-24T20:01:21.496Z,101056.19
2022-11-24T20:03:53.662Z,101062.22
2022-11-24T20:06:20.051Z,101069.25
2022-11-24T20:08:46.472Z,101074.53
2022-11-24T20:11:15.673Z,101072.13
2022-11-24T20:13:44.371Z,101084.31
2022-11-24T20:16:14.163Z,101081.16
2022-11-24T20:18:43.868Z,101079.47
2022-11-24T20:21:13.739Z,101080.66
2022-11-24T20:23:41.194Z,101082.03
2022-11-24T20:26:22.882Z,101097.06
2022-11-24T20:28:49.890Z,101107.06
2022-11-24T20:31:18.895Z,101104.06
2022-11-24T20:33:45.904Z,101104.09
2022-11-24T20:36:21.192Z,101100.22
2022-11-24T20:38:49.381Z,101094.22
2022-11-24T20:41:27.032Z,101097.09
2022-11-24T20:43:55.021Z,101097.56
2022-11-24T20:46:26.790Z,101109.72
2022-11-24T20:48:54.128Z,101102.38
2022-11-24T20:51:24.037Z,101111.66
2022-11-24T20:53:52.096Z,101099.25
2022-11-24T20:56:26.855Z,101106.59
2022-11-24T20:58:53.681Z,101108.53
2022-11-24T21:01:42.116Z,101109.84
2022-11-24T21:04:11.476Z,101102.97
2022-11-24T21:06:38.439Z,101100.81
2022-11-24T21:09:07.851Z,101103.06
2022-11-24T21:11:34.970Z,101099.94
2022-11-24T21:14:02.027Z,101105.72
2022-11-24T21:16:30.817Z,101099.72
2022-11-24T21:19:09.403Z,101109.84
2022-11-24T21:21:37.645Z,101118.38
2022-11-24T21:24:15.985Z,101112.00
2022-11-24T21:26:43.828Z,101120.16
2022-11-24T21:29:12.977Z,101125.47
2022-11-24T21:31:39.504Z,101122.72
2022-11-24T21:34:07.383Z,101125.34
2022-11-24T21:36:35.019Z,101121.03
2022-11-24T21:39:02.715Z,101121.16
2022-11-24T21:41:32.213Z,101121.41
2022-11-24T21:43:58.601Z,101118.00
2022-11-24T21:46:25.019Z,101119.81
2022-11-24T21:48:51.544Z,101119.59
2022-11-24T21:51:20.078Z,101128.13
2022-11-24T21:53:47.278Z,101127.22
2022-11-24T21:56:19.187Z,101134.06
2022-11-24T21:58:54.650Z,101132.50
2022-11-24T22:01:27.823Z,101136.94
2022-11-24T22:03:54.813Z,101127.09
2022-11-24T22:06:21.569Z,101132.38
2022-11-24T22:08:48.636Z,101133.31
2022-11-24T22:11:20.863Z,101134.75
2022-11-24T22:13:48.222Z,101130.53
2022-11-24T22:16:17.597Z,101131.38
2022-11-24T22:18:45.205Z,101142.31
2022-11-24T22:21:20.873Z,101135.94
2022-11-24T22:23:50.722Z,101139.44
2022-11-24T22:26:19.329Z,101138.97
2022-11-24T22:28:45.815Z,101146.44
2022-11-24T22:31:15.038Z,101146.53
2022-11-24T22:33:42.078Z,101143.28
2022-11-24T22:36:09.733Z,101145.38
2022-11-24T22:38:36.922Z,101134.75
2022-11-24T22:41:08.045Z,101153.06
2022-11-24T22:43:35.286Z,101150.06
2022-11-24T22:46:10.940Z,101144.88
2022-11-24T22:48:38.029Z,101146.19
2022-11-24T22:51:07.045Z,101148.00
2022-11-24T22:53:33.786Z,101149.31
2022-11-24T22:56:01.637Z,101152.84
2022-11-24T22:58:28.454Z,101152.09
2022-11-24T23:00:54.851Z,101149.59
2022-11-24T23:03:21.303Z,101151.38
2022-11-24T23:05:47.745Z,101154.38
2022-11-24T23:08:14.213Z,101160.28
2022-11-24T23:10:40.670Z,101162.06
2022-11-24T23:13:07.081Z,101164.38
2022-11-24T23:15:33.467Z,101158.28
2022-11-24T23:17:59.871Z,101157.56
2022-11-24T23:20:26.246Z,101165.28
2022-11-24T23:22:53.216Z,101163.34
2022-11-24T23:25:19.596Z,101164.69
2022-11-24T23:27:45.981Z,101158.56
2022-11-24T23:30:12.413Z,101168.31
2022-11-24T23:32:38.818Z,101162.78
2022-11-24T23:35:08.521Z,101160.22
2022-11-24T23:38:05.920Z,101171.94
2022-11-24T23:40:25.227Z,101161.53
2022-11-24T23:42:52.034Z,101173.09
2022-11-24T23:45:18.419Z,101172.91
2022-11-24T23:47:44.809Z,101170.75
2022-11-24T23:50:11.395Z,101168.69
2022-11-24T23:52:37.801Z,101171.59
2022-11-24T23:55:04.656Z,101169.66
2022-11-24T23:57:31.335Z,101168.19
2022-11-24T23:59:57.722Z,101169.97
